createdAt,value
2022-08-22T00:01:29.149Z,85.50
2022-08-22T00:04:21.389Z,85.80
2022-08-22T00:07:02.850Z,86.00
2022-08-22T00:09:45.112Z,86.00
2022-08-22T00:12:22.464Z,86.10
2022-08-22T00:15:09.150Z,86.20
2022-08-22T00:18:10.159Z,86.30
2022-08-22T00:21:00.338Z,86.40
2022-08-22T00:23:34.565Z,85.60
2022-08-22T00:26:27.475Z,86.30
2022-08-22T00:29:11.908Z,86.80
2022-08-22T00:31:45.798Z,87.10
2022-08-22T00:34:29.167Z,88.00
2022-08-22T00:37:20.759Z,87.70
2022-08-22T00:40:13.138Z,87.90
2022-08-22T00:42:53.683Z,87.90
2022-08-22T00:45:58.566Z,88.10
2022-08-22T00:48:59.393Z,88.00
2022-08-22T00:51:52.771Z,88.20
2022-08-22T00:54:55.623Z,88.10
2022-08-22T00:57:52.431Z,88.40
2022-08-22T01:00:30.560Z,88.60
2022-08-22T01:03:12.230Z,88.70
2022-08-22T01:06:06.263Z,88.90
2022-08-22T01:08:39.416Z,89.10
2022-08-22T01:11:24.897Z,89.10
2022-08-22T01:14:04.250Z,89.20
2022-08-22T01:17:02.467Z,89.40
2022-08-22T01:20:00.966Z,89.70
2022-08-22T01:22:47.138Z,89.70
2022-08-22T01:25:42.034Z,89.70
2022-08-22T01:28:47.117Z,89.90
2022-08-22T01:31:41.422Z,90.00
2022-08-22T01:34:31.762Z,90.00
2022-08-22T01:37:24.014Z,90.10
2022-08-22T01:40:27.220Z,90.10
2022-08-22T01:43:00.819Z,90.20
2022-08-22T01:45:31.414Z,90.30
2022-08-22T01:48:10.490Z,90.30
2022-08-22T01:50:53.601Z,90.40
2022-08-22T01:53:26.030Z,90.40
2022-08-22T01:56:16.738Z,90.40
2022-08-22T01:58:56.299Z,90.40
2022-08-22T02:01:34.004Z,90.30
2022-08-22T02:04:28.840Z,90.40
2022-08-22T02:07:14.268Z,90.50
2022-08-22T02:09:52.482Z,90.50
2022-08-22T02:12:42.209Z,90.50
2022-08-22T02:15:17.241Z,90.70
2022-08-22T02:18:11.094Z,90.80
2022-08-22T02:21:05.301Z,90.80
2022-08-22T02:24:04.531Z,91.00
2022-08-22T02:26:51.535Z,91.00
2022-08-22T02:29:29.646Z,91.00
2022-08-22T02:32:08.726Z,91.00
2022-08-22T02:34:49.131Z,91.20
2022-08-22T02:37:50.053Z,91.30
2022-08-22T02:40:32.276Z,91.40
2022-08-22T02:43:22.614Z,91.40
2022-08-22T02:46:00.481Z,91.40
2022-08-22T02:48:47.889Z,91.40
2022-08-22T02:51:43.553Z,91.50
2022-08-22T02:54:20.739Z,91.50
2022-08-22T02:57:01.750Z,91.40
2022-08-22T02:59:56.100Z,91.60
2022-08-22T03:02:44.825Z,91.70
2022-08-22T03:05:28.790Z,91.70
2022-08-22T03:08:13.689Z,91.70
2022-08-22T03:10:47.204Z,91.80
2022-08-22T03:13:30.483Z,91.80
2022-08-22T03:16:36.777Z,91.90
2022-08-22T03:19:27.852Z,92.00
2022-08-22T03:22:00.777Z,92.00
2022-08-22T03:24:48.865Z,91.90
2022-08-22T03:27:32.829Z,92.10
2022-08-22T03:30:22.859Z,92.00
2022-08-22T03:32:54.614Z,92.10
2022-08-22T03:35:38.008Z,92.10
2022-08-22T03:38:18.237Z,92.20
2022-08-22T03:41:04.590Z,92.30
2022-08-22T03:43:39.573Z,92.30
2022-08-22T03:46:30.974Z,92.40
2022-08-22T03:49:13.247Z,92.50
2022-08-22T03:51:59.632Z,92.40
2022-08-22T03:54:56.010Z,92.40
2022-08-22T03:58:01.122Z,92.60
2022-08-22T04:00:48.796Z,92.60
2022-08-22T04:03:48.199Z,92.70
2022-08-22T04:06:22.537Z,92.80
2022-08-22T04:09:11.926Z,92.40
2022-08-22T04:11:59.580Z,92.70
2022-08-22T04:14:44.774Z,92.80
2022-08-22T04:17:30.225Z,93.00
2022-08-22T04:20:16.646Z,93.00
2022-08-22T04:23:02.642Z,93.00
2022-08-22T04:25:47.069Z,93.00
2022-08-22T04:28:25.525Z,93.10
2022-08-22T04:31:00.487Z,93.10
2022-08-22T04:33:45.437Z,93.50
2022-08-22T04:36:28.267Z,93.10
2022-08-22T04:39:18.400Z,93.20
2022-08-22T04:41:51.905Z,93.30
2022-08-22T04:44:37.750Z,93.20
2022-08-22T04:47:26.927Z,93.40
2022-08-22T04:50:10.409Z,93.40
2022-08-22T04:52:53.149Z,93.40
2022-08-22T04:55:55.048Z,93.50
2022-08-22T04:58:32.676Z,93.50
2022-08-22T05:01:28.448Z,93.50
2022-08-22T05:04:03.005Z,93.60
2022-08-22T05:06:34.306Z,93.60
2022-08-22T05:09:17.243Z,93.70
2022-08-22T05:11:48.740Z,93.80
2022-08-22T05:14:44.501Z,93.80
2022-08-22T05:17:18.815Z,93.90
2022-08-22T05:19:52.710Z,93.80
2022-08-22T05:22:26.981Z,93.80
2022-08-22T05:25:08.676Z,93.90
2022-08-22T05:27:45.636Z,93.90
2022-08-22T05:30:21.752Z,93.90
2022-08-22T05:32:51.907Z,93.80
2022-08-22T05:35:32.703Z,93.80
2022-08-22T05:38:01.329Z,93.80
2022-08-22T05:40:31.320Z,93.80
2022-08-22T05:42:59.118Z,93.90
2022-08-22T05:45:28.276Z,94.00
2022-08-22T05:48:08.805Z,94.10
2022-08-22T05:50:40.997Z,94.20
2022-08-22T05:53:15.590Z,94.20
2022-08-22T05:56:03.007Z,94.30
2022-08-22T05:58:52.942Z,94.40
2022-08-22T06:01:51.938Z,94.50
2022-08-22T06:04:44.959Z,94.50
2022-08-22T06:07:18.530Z,94.60
2022-08-22T06:09:49.034Z,94.60
2022-08-22T06:12:21.734Z,94.70
2022-08-22T06:15:03.277Z,94.70
2022-08-22T06:17:45.457Z,94.80
2022-08-22T06:20:43.277Z,94.80
2022-08-22T06:23:21.621Z,94.90
2022-08-22T06:25:51.541Z,94.90
2022-08-22T06:28:26.740Z,95.00
2022-08-22T06:30:56.605Z,95.10
2022-08-22T06:33:31.177Z,95.10
2022-08-22T06:36:26.016Z,95.30
2022-08-22T06:39:02.622Z,95.30
2022-08-22T06:41:33.924Z,95.20
2022-08-22T06:44:03.870Z,95.30
2022-08-22T06:46:36.008Z,95.30
2022-08-22T06:49:05.645Z,95.40
2022-08-22T06:51:37.984Z,95.40
2022-08-22T06:54:11.440Z,95.40
2022-08-22T06:56:41.925Z,95.40
2022-08-22T06:59:13.982Z,95.40
2022-08-22T07:02:04.672Z,95.40
2022-08-22T07:04:32.445Z,95.40
2022-08-22T07:07:01.709Z,95.30
2022-08-22T07:09:37.754Z,95.30
2022-08-22T07:12:14.065Z,95.40
2022-08-22T07:14:44.155Z,95.40
2022-08-22T07:17:32.771Z,95.30
2022-08-22T07:20:23.652Z,95.20
2022-08-22T07:23:07.538Z,95.00
2022-08-22T07:26:03.462Z,94.70
2022-08-22T07:28:51.471Z,94.50
2022-08-22T07:31:51.606Z,94.20
2022-08-22T07:34:58.051Z,93.70
2022-08-22T07:37:46.118Z,93.10
2022-08-22T07:40:54.803Z,92.90
2022-08-22T07:43:34.611Z,92.20
2022-08-22T07:46:35.742Z,91.70
2022-08-22T07:49:23.113Z,91.20
2022-08-22T07:51:55.189Z,91.00
2022-08-22T07:54:39.802Z,90.70
2022-08-22T07:57:15.200Z,90.00
2022-08-22T07:59:53.009Z,89.90
2022-08-22T08:02:21.815Z,89.20
2022-08-22T08:04:52.646Z,88.50
2022-08-22T08:07:24.791Z,88.00
2022-08-22T08:10:04.801Z,87.30
2022-08-22T08:12:44.310Z,86.70
2022-08-22T08:15:26.048Z,86.40
2022-08-22T08:18:00.463Z,86.10
2022-08-22T08:20:29.660Z,85.40
2022-08-22T08:22:59.291Z,85.00
2022-08-22T08:25:29.328Z,84.30
2022-08-22T08:28:18.296Z,84.20
2022-08-22T08:30:59.474Z,84.00
2022-08-22T08:33:31.513Z,83.90
2022-08-22T08:36:47.566Z,83.90
2022-08-22T08:39:25.587Z,83.50
2022-08-22T08:42:56.848Z,83.00
2022-08-22T08:45:47.039Z,82.00
2022-08-22T08:48:33.163Z,81.70
2022-08-22T08:51:19.642Z,81.40
2022-08-22T08:54:12.330Z,81.00
2022-08-22T08:56:59.585Z,80.70
2022-08-22T08:59:48.165Z,80.30
2022-08-22T09:02:55.460Z,80.20
2022-08-22T09:05:55.589Z,80.20
2022-08-22T09:08:47.590Z,80.10
2022-08-22T09:11:28.469Z,80.10
2022-08-22T09:14:08.981Z,80.00
2022-08-22T09:16:51.284Z,79.90
2022-08-22T09:19:43.343Z,79.10
2022-08-22T09:22:27.229Z,78.40
2022-08-22T09:25:23.519Z,78.10
2022-08-22T09:28:00.958Z,77.40
2022-08-22T09:31:03.271Z,77.30
2022-08-22T09:33:54.638Z,76.60
2022-08-22T09:36:35.502Z,75.90
2022-08-22T09:39:20.198Z,75.20
2022-08-22T09:42:02.761Z,75.30
2022-08-22T09:44:39.607Z,75.20
2022-08-22T09:47:39.199Z,75.00
2022-08-22T09:50:22.381Z,75.10
2022-08-22T09:53:09.285Z,75.20
2022-08-22T09:55:59.841Z,75.60
2022-08-22T09:58:54.932Z,75.90
2022-08-22T10:01:57.697Z,76.00
2022-08-22T10:04:57.214Z,75.90
2022-08-22T10:07:52.882Z,76.00
2022-08-22T10:10:21.329Z,75.20
2022-08-22T10:12:58.363Z,74.40
2022-08-22T10:15:41.415Z,73.70
2022-08-22T10:18:23.925Z,73.30
2022-08-22T10:21:09.216Z,72.80
2022-08-22T10:24:07.700Z,72.70
2022-08-22T10:26:42.806Z,72.50
2022-08-22T10:29:32.027Z,72.20
2022-08-22T10:32:28.244Z,71.70
2022-08-22T10:35:06.366Z,71.30
2022-08-22T10:37:59.221Z,71.60
2022-08-22T10:40:41.731Z,71.20
2022-08-22T10:43:40.902Z,71.10
2022-08-22T10:46:27.084Z,70.70
2022-08-22T10:48:59.112Z,70.90
2022-08-22T10:52:14.756Z,71.20
2022-08-22T10:54:46.258Z,70.80
2022-08-22T10:57:20.600Z,70.30
2022-08-22T11:00:08.477Z,70.40
2022-08-22T11:02:38.395Z,69.90
2022-08-22T11:05:34.733Z,69.90
2022-08-22T11:08:30.389Z,69.80
2022-08-22T11:11:32.646Z,69.50
2022-08-22T11:14:22.641Z,69.30
2022-08-22T11:17:31.149Z,69.00
2022-08-22T11:20:19.827Z,68.70
2022-08-22T11:23:01.278Z,68.40
2022-08-22T11:25:54.081Z,68.40
2022-08-22T11:28:40.569Z,68.20
2022-08-22T11:31:36.453Z,67.80
2022-08-22T11:34:20.800Z,67.40
2022-08-22T11:36:55.413Z,67.30
2022-08-22T11:39:45.183Z,67.10
2022-08-22T11:42:33.284Z,66.80
2022-08-22T11:45:04.890Z,66.60
2022-08-22T11:47:44.450Z,66.60
2022-08-22T11:50:37.926Z,67.30
2022-08-22T11:53:34.934Z,67.30
2022-08-22T11:56:32.718Z,67.50
2022-08-22T11:59:16.234Z,67.40
2022-08-22T12:02:10.247Z,67.50
2022-08-22T12:04:53.487Z,67.60
2022-08-22T12:07:34.128Z,68.20
2022-08-22T12:10:13.480Z,68.40
2022-08-22T12:12:56.176Z,68.60
2022-08-22T12:15:42.000Z,68.90
2022-08-22T12:18:24.419Z,69.20
2022-08-22T12:21:09.771Z,69.60
2022-08-22T12:23:52.250Z,69.90
2022-08-22T12:26:38.116Z,70.10
2022-08-22T12:29:34.077Z,70.20
2022-08-22T12:32:28.352Z,70.60
2022-08-22T12:35:29.765Z,71.10
2022-08-22T12:41:27.671Z,71.00
2022-08-22T12:44:45.892Z,71.90
2022-08-22T12:47:32.636Z,72.10
2022-08-22T12:50:23.322Z,72.00
2022-08-22T12:53:00.569Z,72.50
2022-08-22T12:55:50.191Z,73.00
2022-08-22T12:58:38.327Z,72.90
2022-08-22T13:01:08.971Z,72.80
2022-08-22T13:03:46.197Z,72.60
2022-08-22T13:06:48.604Z,72.50
2022-08-22T13:09:28.822Z,72.10
2022-08-22T13:12:19.923Z,71.50
2022-08-22T13:14:52.569Z,70.70
2022-08-22T13:17:25.087Z,70.10
2022-08-22T13:19:55.650Z,70.30
2022-08-22T13:22:29.043Z,68.60
2022-08-22T13:25:26.189Z,68.10
2022-08-22T13:28:01.277Z,67.60
2022-08-22T13:30:31.860Z,67.00
2022-08-22T13:33:10.247Z,66.00
2022-08-22T13:35:52.197Z,65.30
2022-08-22T13:38:29.282Z,64.90
2022-08-22T13:40:59.236Z,64.90
2022-08-22T13:43:37.216Z,65.10
2022-08-22T13:46:11.487Z,65.30
2022-08-22T13:48:52.390Z,65.30
2022-08-22T13:51:29.983Z,65.30
2022-08-22T13:54:21.721Z,65.50
2022-08-22T13:57:04.034Z,65.50
2022-08-22T13:59:59.461Z,66.10
2022-08-22T14:02:38.850Z,66.20
2022-08-22T14:05:25.624Z,66.60
2022-08-22T14:08:18.457Z,67.10
2022-08-22T14:10:55.150Z,67.70
2022-08-22T14:13:48.382Z,68.10
2022-08-22T14:16:36.264Z,68.30
2022-08-22T14:19:11.267Z,68.70
2022-08-22T14:21:46.559Z,69.00
2022-08-22T14:24:25.776Z,69.20
2022-08-22T14:27:14.971Z,69.40
2022-08-22T14:29:58.120Z,69.20
2022-08-22T14:32:28.540Z,70.30
2022-08-22T14:35:23.054Z,70.40
2022-08-22T14:38:17.529Z,70.80
2022-08-22T14:40:46.872Z,70.90
2022-08-22T14:43:29.452Z,70.90
2022-08-22T14:46:07.177Z,71.30
2022-08-22T14:49:00.691Z,71.40
2022-08-22T14:51:29.429Z,71.60
2022-08-22T14:54:21.267Z,71.60
2022-08-22T14:56:51.815Z,72.00
2022-08-22T14:59:32.698Z,72.00
2022-08-22T15:02:14.246Z,71.90
2022-08-22T15:04:45.630Z,71.60
2022-08-22T15:07:30.900Z,71.10
2022-08-22T15:10:06.006Z,70.90
2022-08-22T15:12:48.340Z,70.40
2022-08-22T15:15:28.569Z,70.20
2022-08-22T15:17:56.579Z,69.80
2022-08-22T15:20:36.217Z,69.60
2022-08-22T15:23:18.197Z,69.50
2022-08-22T15:25:56.173Z,69.10
2022-08-22T15:28:25.048Z,69.00
2022-08-22T15:31:14.506Z,68.60
2022-08-22T15:33:45.446Z,68.20
2022-08-22T15:36:26.312Z,68.20
2022-08-22T15:39:16.659Z,68.20
2022-08-22T15:41:48.160Z,68.30
2022-08-22T15:44:30.752Z,68.50
2022-08-22T15:47:11.767Z,68.50
2022-08-22T15:50:00.062Z,68.30
2022-08-22T15:52:31.717Z,68.20
2022-08-22T15:55:14.295Z,68.20
2022-08-22T15:57:59.318Z,68.20
2022-08-22T16:01:04.724Z,68.30
2022-08-22T16:03:58.363Z,68.50
2022-08-22T16:06:52.398Z,68.30
2022-08-22T16:09:32.287Z,68.20
2022-08-22T16:12:05.145Z,68.20
2022-08-22T16:14:35.797Z,68.10
2022-08-22T16:17:26.306Z,68.20
2022-08-22T16:20:12.017Z,68.20
2022-08-22T16:23:06.747Z,68.80
2022-08-22T16:25:46.729Z,68.50
2022-08-22T16:28:56.260Z,68.40
2022-08-22T16:31:30.707Z,67.90
2022-08-22T16:34:18.413Z,67.60
2022-08-22T16:36:46.043Z,67.20
2022-08-22T16:39:22.633Z,67.40
2022-08-22T16:41:51.704Z,67.60
2022-08-22T16:44:30.404Z,67.90
2022-08-22T16:47:30.128Z,68.20
2022-08-22T16:50:00.617Z,68.60
2022-08-22T16:52:30.367Z,68.70
2022-08-22T16:55:26.391Z,69.70
2022-08-22T16:58:11.254Z,69.20
2022-08-22T17:01:16.463Z,69.70
2022-08-22T17:04:16.660Z,70.20
2022-08-22T17:06:50.862Z,70.60
2022-08-22T17:09:37.523Z,70.70
2022-08-22T17:12:26.170Z,71.10
2022-08-22T17:15:15.639Z,71.50
2022-08-22T17:18:21.211Z,71.80
2022-08-22T17:21:14.630Z,72.10
2022-08-22T17:24:06.388Z,72.30
2022-08-22T17:26:44.571Z,72.60
2022-08-22T17:29:12.080Z,72.80
2022-08-22T17:32:20.089Z,72.90
2022-08-22T17:34:59.358Z,73.10
2022-08-22T17:37:54.610Z,73.20
2022-08-22T17:40:45.356Z,73.50
2022-08-22T17:43:49.558Z,73.60
2022-08-22T17:46:49.442Z,73.80
2022-08-22T17:49:24.288Z,74.10
2022-08-22T17:52:07.171Z,74.30
2022-08-22T17:54:42.212Z,74.50
2022-08-22T17:57:21.918Z,74.90
2022-08-22T18:00:02.039Z,75.00
2022-08-22T18:02:42.870Z,75.50
2022-08-22T18:05:33.921Z,76.00
2022-08-22T18:08:37.384Z,76.10
2022-08-22T18:11:12.577Z,76.50
2022-08-22T18:13:49.830Z,76.70
2022-08-22T18:16:29.528Z,76.80
2022-08-22T18:19:18.799Z,76.90
2022-08-22T18:21:48.996Z,76.90
2022-08-22T18:24:22.602Z,77.00
2022-08-22T18:26:56.198Z,77.10
2022-08-22T18:29:44.855Z,77.60
2022-08-22T18:32:29.288Z,77.80
2022-08-22T18:35:12.963Z,78.20
2022-08-22T18:37:43.743Z,78.50
2022-08-22T18:40:36.712Z,78.80
2022-08-22T18:43:24.204Z,79.50
2022-08-22T18:45:51.792Z,79.80
2022-08-22T18:48:29.558Z,80.10
2022-08-22T18:51:29.411Z,80.60
2022-08-22T18:54:06.907Z,81.00
2022-08-22T18:56:51.095Z,81.70
2022-08-22T18:59:36.780Z,83.00
2022-08-22T19:02:50.994Z,83.40
2022-08-22T19:05:47.163Z,84.30
2022-08-22T19:08:50.434Z,85.50
2022-08-22T19:11:45.630Z,86.40
2022-08-22T19:14:13.151Z,87.30
2022-08-22T19:17:04.459Z,87.30
2022-08-22T19:19:58.320Z,88.40
2022-08-22T19:22:29.642Z,88.90
2022-08-22T19:25:09.122Z,89.80
2022-08-22T19:28:14.087Z,90.40
2022-08-22T19:30:49.414Z,90.70
2022-08-22T19:33:37.757Z,90.80
2022-08-22T19:36:09.660Z,91.20
2022-08-22T19:39:00.183Z,91.60
2022-08-22T19:41:43.484Z,92.00
2022-08-22T19:44:35.959Z,92.70
2022-08-22T19:47:07.863Z,92.60
2022-08-22T19:49:39.421Z,92.90
2022-08-22T19:52:15.815Z,93.20
2022-08-22T19:55:05.210Z,93.60
2022-08-22T19:57:51.435Z,94.00
2022-08-22T20:00:43.989Z,94.30
2022-08-22T20:03:38.916Z,94.60
2022-08-22T20:06:44.990Z,95.00
2022-08-22T20:09:25.404Z,95.30
2022-08-22T20:12:00.644Z,95.60
2022-08-22T20:14:35.018Z,95.70
2022-08-22T20:17:26.781Z,96.10
2022-08-22T20:23:00.724Z,96.50
2022-08-22T20:25:50.101Z,96.80
2022-08-22T20:28:38.875Z,97.00
2022-08-22T20:31:12.378Z,97.20
2022-08-22T20:33:43.913Z,97.40
2022-08-22T20:36:28.371Z,97.70
2022-08-22T20:39:02.982Z,97.90
2022-08-22T20:41:44.595Z,98.10
2022-08-22T20:44:40.781Z,98.40
2022-08-22T20:47:19.507Z,98.50
2022-08-22T20:49:53.133Z,98.70
2022-08-22T20:52:34.311Z,98.90
2022-08-22T20:55:16.651Z,99.10
2022-08-22T20:57:49.691Z,99.30
2022-08-22T21:00:24.649Z,99.40
2022-08-22T21:03:05.712Z,99.60
2022-08-22T21:05:37.832Z,99.80
2022-08-22T21:08:13.355Z,99.90
2022-08-22T21:11:00.582Z,99.90
2022-08-22T21:13:36.614Z,99.90
2022-08-22T21:16:22.699Z,99.90
2022-08-22T21:18:53.639Z,99.90
2022-08-22T21:21:24.958Z,99.90
2022-08-22T21:35:59.618Z,99.90
2022-08-22T21:38:28.219Z,99.90
2022-08-22T21:41:01.862Z,99.90
2022-08-22T21:43:39.466Z,99.90
2022-08-22T21:46:09.532Z,99.90
2022-08-22T21:48:46.233Z,99.90
2022-08-22T21:51:41.802Z,99.90
2022-08-22T21:54:31.997Z,99.90
2022-08-22T21:57:16.074Z,99.90
2022-08-22T21:59:51.828Z,99.90
2022-08-22T22:02:36.417Z,99.90
2022-08-22T22:05:13.864Z,99.90
2022-08-22T22:07:43.730Z,99.90
2022-08-22T22:10:13.996Z,99.90
2022-08-22T22:12:43.599Z,99.90
2022-08-22T22:15:14.954Z,99.90
2022-08-22T22:17:43.318Z,99.90
2022-08-22T22:20:13.603Z,99.90
2022-08-22T22:22:46.251Z,99.90
2022-08-22T22:25:40.974Z,99.90
2022-08-22T22:28:12.850Z,99.90
2022-08-22T22:30:41.343Z,99.90
2022-08-22T22:33:09.511Z,99.90
2022-08-22T22:35:40.630Z,99.90
2022-08-22T22:38:08.955Z,99.90
2022-08-22T22:40:36.483Z,99.90
2022-08-22T22:43:04.092Z,99.90
2022-08-22T22:45:31.694Z,99.90
2022-08-22T22:47:59.556Z,99.90
2022-08-22T22:50:27.173Z,99.90
2022-08-22T22:52:54.951Z,99.90
2022-08-22T22:55:24.086Z,99.90
2022-08-22T22:57:58.604Z,99.90
2022-08-22T23:00:30.838Z,99.90
2022-08-22T23:03:00.862Z,99.90
2022-08-22T23:05:32.040Z,99.90
2022-08-22T23:08:00.179Z,99.90
2022-08-22T23:10:29.585Z,99.90
2022-08-22T23:12:57.521Z,99.90
2022-08-22T23:15:25.141Z,99.90
2022-08-22T23:17:52.732Z,99.90
2022-08-22T23:20:20.314Z,99.90
2022-08-22T23:22:48.410Z,99.90
2022-08-22T23:25:15.931Z,99.90
2022-08-22T23:27:43.670Z,99.90
2022-08-22T23:30:11.770Z,99.90
2022-08-22T23:32:39.373Z,99.90
2022-08-22T23:35:07.561Z,99.90
2022-08-22T23:37:35.243Z,99.90
2022-08-22T23:40:06.371Z,99.90
2022-08-22T23:42:34.167Z,99.90
2022-08-22T23:45:01.680Z,99.90
2022-08-22T23:47:29.203Z,99.90
2022-08-22T23:49:56.665Z,99.90
2022-08-22T23:52:24.066Z,99.90
2022-08-22T23:54:54.634Z,99.90
2022-08-22T23:57:26.426Z,99.90
2022-08-22T23:59:57.495Z,99.90
